sensor_id;sensor_type;location;lat;lon;timestamp;P1;durP1;ratioP1;P2;durP2;ratioP2
10939;SDS011;5522;42.696;23.494;2023-04-24T00:00:19;1.60;;;0.82;;
10939;SDS011;5522;42.696;23.494;2023-04-24T00:02:47;1.75;;;0.70;;
10939;SDS011;5522;42.696;23.494;2023-04-24T00:05:15;2.60;;;1.13;;
10939;SDS011;5522;42.696;23.494;2023-04-24T00:07:43;2.20;;;0.90;;
10939;SDS011;5522;42.696;23.494;2023-04-24T00:10:11;2.22;;;1.02;;
10939;SDS011;5522;42.696;23.494;2023-04-24T00:12:38;4.47;;;0.93;;
10939;SDS011;5522;42.696;23.494;2023-04-24T00:15:05;2.30;;;1.15;;
10939;SDS011;5522;42.696;23.494;2023-04-24T00:17:33;2.80;;;0.80;;
10939;SDS011;5522;42.696;23.494;2023-04-24T00:22:46;1.85;;;0.70;;
10939;SDS011;5522;42.696;23.494;2023-04-24T00:25:12;0.70;;;0.70;;
10939;SDS011;5522;42.696;23.494;2023-04-24T00:27:39;0.95;;;0.80;;
10939;SDS011;5522;42.696;23.494;2023-04-24T00:30:06;1.15;;;0.63;;
10939;SDS011;5522;42.696;23.494;2023-04-24T00:32:34;1.17;;;0.70;;
10939;SDS011;5522;42.696;23.494;2023-04-24T00:35:00;1.30;;;0.65;;
10939;SDS011;5522;42.696;23.494;2023-04-24T00:37:27;3.53;;;0.75;;
10939;SDS011;5522;42.696;23.494;2023-04-24T00:39:56;1.33;;;0.70;;
10939;SDS011;5522;42.696;23.494;2023-04-24T00:42:23;0.80;;;0.80;;
10939;SDS011;5522;42.696;23.494;2023-04-24T00:44:50;2.63;;;0.80;;
10939;SDS011;5522;42.696;23.494;2023-04-24T00:47:17;0.80;;;0.80;;
10939;SDS011;5522;42.696;23.494;2023-04-24T00:49:46;2.05;;;0.73;;
10939;SDS011;5522;42.696;23.494;2023-04-24T00:52:14;1.50;;;0.60;;
10939;SDS011;5522;42.696;23.494;2023-04-24T00:54:42;1.77;;;0.70;;
10939;SDS011;5522;42.696;23.494;2023-04-24T00:57:11;4.95;;;0.90;;
10939;SDS011;5522;42.696;23.494;2023-04-24T00:59:40;1.58;;;0.80;;
10939;SDS011;5522;42.696;23.494;2023-04-24T01:07:18;0.65;;;0.65;;
10939;SDS011;5522;42.696;23.494;2023-04-24T01:09:46;2.90;;;0.73;;
10939;SDS011;5522;42.696;23.494;2023-04-24T01:12:17;1.50;;;0.77;;
10939;SDS011;5522;42.696;23.494;2023-04-24T01:14:44;1.85;;;0.77;;
10939;SDS011;5522;42.696;23.494;2023-04-24T01:17:11;1.35;;;0.73;;
10939;SDS011;5522;42.696;23.494;2023-04-24T01:19:38;1.10;;;0.45;;
10939;SDS011;5522;42.696;23.494;2023-04-24T01:22:11;0.90;;;0.90;;
10939;SDS011;5522;42.696;23.494;2023-04-24T01:24:39;3.08;;;0.77;;
10939;SDS011;5522;42.696;23.494;2023-04-24T01:27:06;2.28;;;0.80;;
10939;SDS011;5522;42.696;23.494;2023-04-24T01:29:34;0.70;;;0.70;;
10939;SDS011;5522;42.696;23.494;2023-04-24T01:32:02;3.25;;;1.17;;
10939;SDS011;5522;42.696;23.494;2023-04-24T01:34:29;4.00;;;0.93;;
10939;SDS011;5522;42.696;23.494;2023-04-24T01:36:56;4.97;;;0.90;;
10939;SDS011;5522;42.696;23.494;2023-04-24T01:39:25;3.50;;;0.90;;
10939;SDS011;5522;42.696;23.494;2023-04-24T01:41:53;1.05;;;0.80;;
10939;SDS011;5522;42.696;23.494;2023-04-24T01:44:20;2.25;;;0.80;;
10939;SDS011;5522;42.696;23.494;2023-04-24T01:46:48;2.15;;;0.70;;
10939;SDS011;5522;42.696;23.494;2023-04-24T01:49:15;2.40;;;0.70;;
10939;SDS011;5522;42.696;23.494;2023-04-24T01:51:42;4.00;;;1.13;;
10939;SDS011;5522;42.696;23.494;2023-04-24T01:54:09;0.90;;;0.70;;
10939;SDS011;5522;42.696;23.494;2023-04-24T01:56:37;1.98;;;0.85;;
10939;SDS011;5522;42.696;23.494;2023-04-24T01:59:07;3.17;;;0.90;;
10939;SDS011;5522;42.696;23.494;2023-04-24T02:01:36;2.05;;;0.80;;
10939;SDS011;5522;42.696;23.494;2023-04-24T02:04:03;2.08;;;0.90;;
10939;SDS011;5522;42.696;23.494;2023-04-24T02:06:31;2.05;;;0.80;;
10939;SDS011;5522;42.696;23.494;2023-04-24T02:08:58;2.42;;;1.17;;
10939;SDS011;5522;42.696;23.494;2023-04-24T02:11:25;4.72;;;1.40;;
10939;SDS011;5522;42.696;23.494;2023-04-24T02:13:53;0.70;;;0.70;;
10939;SDS011;5522;42.696;23.494;2023-04-24T02:16:20;2.03;;;0.80;;
10939;SDS011;5522;42.696;23.494;2023-04-24T02:18:47;4.57;;;0.85;;
10939;SDS011;5522;42.696;23.494;2023-04-24T02:21:14;1.02;;;0.75;;
10939;SDS011;5522;42.696;23.494;2023-04-24T02:23:40;0.95;;;0.95;;
10939;SDS011;5522;42.696;23.494;2023-04-24T02:26:07;3.17;;;0.80;;
10939;SDS011;5522;42.696;23.494;2023-04-24T02:28:34;2.25;;;0.98;;
10939;SDS011;5522;42.696;23.494;2023-04-24T02:31:03;2.20;;;0.82;;
10939;SDS011;5522;42.696;23.494;2023-04-24T02:33:30;2.20;;;1.00;;
10939;SDS011;5522;42.696;23.494;2023-04-24T02:35:57;2.28;;;0.80;;
10939;SDS011;5522;42.696;23.494;2023-04-24T02:38:24;2.55;;;0.90;;
10939;SDS011;5522;42.696;23.494;2023-04-24T02:40:51;3.58;;;1.08;;
10939;SDS011;5522;42.696;23.494;2023-04-24T02:43:18;2.47;;;1.50;;
10939;SDS011;5522;42.696;23.494;2023-04-24T02:45:45;1.55;;;1.00;;
10939;SDS011;5522;42.696;23.494;2023-04-24T02:48:13;1.00;;;1.00;;
10939;SDS011;5522;42.696;23.494;2023-04-24T02:50:40;1.60;;;0.70;;
10939;SDS011;5522;42.696;23.494;2023-04-24T02:53:07;1.40;;;0.90;;
10939;SDS011;5522;42.696;23.494;2023-04-24T02:55:34;2.65;;;0.73;;
10939;SDS011;5522;42.696;23.494;2023-04-24T02:58:01;2.42;;;0.90;;
10939;SDS011;5522;42.696;23.494;2023-04-24T03:00:28;1.92;;;0.70;;
10939;SDS011;5522;42.696;23.494;2023-04-24T03:02:55;1.65;;;1.05;;
10939;SDS011;5522;42.696;23.494;2023-04-24T03:05:23;2.25;;;0.70;;
10939;SDS011;5522;42.696;23.494;2023-04-24T03:07:50;1.45;;;0.73;;
10939;SDS011;5522;42.696;23.494;2023-04-24T03:10:17;2.88;;;0.80;;
10939;SDS011;5522;42.696;23.494;2023-04-24T03:12:44;2.97;;;0.80;;
10939;SDS011;5522;42.696;23.494;2023-04-24T03:15:11;2.35;;;1.00;;
10939;SDS011;5522;42.696;23.494;2023-04-24T03:17:38;2.15;;;0.70;;
10939;SDS011;5522;42.696;23.494;2023-04-24T03:20:05;1.20;;;0.60;;
10939;SDS011;5522;42.696;23.494;2023-04-24T03:22:34;4.00;;;1.10;;
10939;SDS011;5522;42.696;23.494;2023-04-24T03:25:01;0.85;;;0.82;;
10939;SDS011;5522;42.696;23.494;2023-04-24T03:27:28;0.80;;;0.70;;
10939;SDS011;5522;42.696;23.494;2023-04-24T03:29:55;2.88;;;0.90;;
10939;SDS011;5522;42.696;23.494;2023-04-24T03:32:22;3.50;;;1.00;;
10939;SDS011;5522;42.696;23.494;2023-04-24T03:34:49;2.85;;;1.08;;
10939;SDS011;5522;42.696;23.494;2023-04-24T03:37:16;2.10;;;1.20;;
10939;SDS011;5522;42.696;23.494;2023-04-24T03:39:45;4.60;;;1.55;;
10939;SDS011;5522;42.696;23.494;2023-04-24T03:42:11;6.78;;;1.30;;
10939;SDS011;5522;42.696;23.494;2023-04-24T03:44:38;0.95;;;0.95;;
10939;SDS011;5522;42.696;23.494;2023-04-24T03:47:05;5.25;;;1.23;;
10939;SDS011;5522;42.696;23.494;2023-04-24T03:49:32;4.75;;;1.73;;
10939;SDS011;5522;42.696;23.494;2023-04-24T03:51:58;2.13;;;1.10;;
10939;SDS011;5522;42.696;23.494;2023-04-24T03:54:25;2.28;;;1.52;;
10939;SDS011;5522;42.696;23.494;2023-04-24T03:56:53;3.28;;;1.60;;
10939;SDS011;5522;42.696;23.494;2023-04-24T03:59:20;2.95;;;1.20;;
10939;SDS011;5522;42.696;23.494;2023-04-24T04:01:47;3.72;;;1.42;;
10939;SDS011;5522;42.696;23.494;2023-04-24T04:04:14;2.65;;;1.70;;
10939;SDS011;5522;42.696;23.494;2023-04-24T04:06:41;3.67;;;1.13;;
10939;SDS011;5522;42.696;23.494;2023-04-24T04:09:09;6.20;;;1.02;;
10939;SDS011;5522;42.696;23.494;2023-04-24T04:11:36;6.35;;;2.85;;
10939;SDS011;5522;42.696;23.494;2023-04-24T04:14:04;3.75;;;3.20;;
10939;SDS011;5522;42.696;23.494;2023-04-24T04:16:31;8.82;;;6.03;;
10939;SDS011;5522;42.696;23.494;2023-04-24T04:18:58;4.35;;;3.95;;
10939;SDS011;5522;42.696;23.494;2023-04-24T04:21:25;5.00;;;1.38;;
10939;SDS011;5522;42.696;23.494;2023-04-24T04:23:53;4.55;;;0.70;;
10939;SDS011;5522;42.696;23.494;2023-04-24T04:26:19;1.70;;;0.95;;
10939;SDS011;5522;42.696;23.494;2023-04-24T04:28:50;3.67;;;0.70;;
10939;SDS011;5522;42.696;23.494;2023-04-24T04:31:19;6.18;;;3.78;;
10939;SDS011;5522;42.696;23.494;2023-04-24T04:33:47;3.63;;;1.52;;
10939;SDS011;5522;42.696;23.494;2023-04-24T04:36:13;3.20;;;0.60;;
10939;SDS011;5522;42.696;23.494;2023-04-24T04:38:42;1.85;;;0.70;;
10939;SDS011;5522;42.696;23.494;2023-04-24T04:41:09;6.90;;;0.88;;
10939;SDS011;5522;42.696;23.494;2023-04-24T04:43:37;2.47;;;0.75;;
10939;SDS011;5522;42.696;23.494;2023-04-24T04:46:05;2.05;;;0.75;;
10939;SDS011;5522;42.696;23.494;2023-04-24T04:48:35;4.53;;;0.80;;
10939;SDS011;5522;42.696;23.494;2023-04-24T04:51:02;2.35;;;0.70;;
10939;SDS011;5522;42.696;23.494;2023-04-24T04:53:29;3.30;;;1.17;;
10939;SDS011;5522;42.696;23.494;2023-04-24T04:55:56;2.15;;;1.00;;
10939;SDS011;5522;42.696;23.494;2023-04-24T04:58:23;3.47;;;1.20;;
10939;SDS011;5522;42.696;23.494;2023-04-24T05:00:49;3.33;;;1.15;;
10939;SDS011;5522;42.696;23.494;2023-04-24T05:03:17;3.17;;;1.20;;
10939;SDS011;5522;42.696;23.494;2023-04-24T05:05:45;2.83;;;1.70;;
10939;SDS011;5522;42.696;23.494;2023-04-24T05:08:12;5.68;;;1.98;;
10939;SDS011;5522;42.696;23.494;2023-04-24T05:10:39;3.50;;;3.00;;
10939;SDS011;5522;42.696;23.494;2023-04-24T05:13:06;4.28;;;3.10;;
10939;SDS011;5522;42.696;23.494;2023-04-24T05:15:33;3.13;;;2.92;;
10939;SDS011;5522;42.696;23.494;2023-04-24T05:18:00;2.95;;;2.70;;
10939;SDS011;5522;42.696;23.494;2023-04-24T05:20:27;6.18;;;3.10;;
10939;SDS011;5522;42.696;23.494;2023-04-24T05:22:55;3.97;;;2.40;;
10939;SDS011;5522;42.696;23.494;2023-04-24T05:25:22;3.83;;;2.90;;
10939;SDS011;5522;42.696;23.494;2023-04-24T05:27:48;3.28;;;2.97;;
10939;SDS011;5522;42.696;23.494;2023-04-24T05:30:15;3.78;;;3.28;;
10939;SDS011;5522;42.696;23.494;2023-04-24T05:32:42;3.92;;;3.50;;
10939;SDS011;5522;42.696;23.494;2023-04-24T05:35:09;3.72;;;3.53;;
10939;SDS011;5522;42.696;23.494;2023-04-24T05:37:36;4.57;;;3.00;;
10939;SDS011;5522;42.696;23.494;2023-04-24T05:40:05;4.97;;;2.80;;
10939;SDS011;5522;42.696;23.494;2023-04-24T05:42:33;4.05;;;3.50;;
10939;SDS011;5522;42.696;23.494;2023-04-24T05:45:00;6.00;;;3.42;;
10939;SDS011;5522;42.696;23.494;2023-04-24T05:47:27;3.75;;;2.97;;
10939;SDS011;5522;42.696;23.494;2023-04-24T05:49:53;7.47;;;3.58;;
10939;SDS011;5522;42.696;23.494;2023-04-24T05:52:20;5.75;;;3.58;;
10939;SDS011;5522;42.696;23.494;2023-04-24T05:54:47;5.93;;;3.60;;
10939;SDS011;5522;42.696;23.494;2023-04-24T05:57:15;6.70;;;3.45;;
10939;SDS011;5522;42.696;23.494;2023-04-24T05:59:42;6.82;;;3.03;;
10939;SDS011;5522;42.696;23.494;2023-04-24T06:02:09;3.25;;;2.95;;
10939;SDS011;5522;42.696;23.494;2023-04-24T06:04:36;7.30;;;2.85;;
10939;SDS011;5522;42.696;23.494;2023-04-24T06:07:02;6.75;;;3.63;;
10939;SDS011;5522;42.696;23.494;2023-04-24T06:09:29;4.88;;;2.72;;
10939;SDS011;5522;42.696;23.494;2023-04-24T06:11:56;4.03;;;3.00;;
10939;SDS011;5522;42.696;23.494;2023-04-24T06:14:26;3.35;;;2.70;;
10939;SDS011;5522;42.696;23.494;2023-04-24T06:16:53;3.45;;;2.75;;
10939;SDS011;5522;42.696;23.494;2023-04-24T06:19:20;3.55;;;3.00;;
10939;SDS011;5522;42.696;23.494;2023-04-24T06:21:46;2.67;;;2.35;;
10939;SDS011;5522;42.696;23.494;2023-04-24T06:24:13;4.30;;;2.17;;
10939;SDS011;5522;42.696;23.494;2023-04-24T06:26:41;6.50;;;2.42;;
10939;SDS011;5522;42.696;23.494;2023-04-24T06:29:07;4.80;;;2.17;;
10939;SDS011;5522;42.696;23.494;2023-04-24T06:31:36;5.25;;;2.17;;
10939;SDS011;5522;42.696;23.494;2023-04-24T06:34:03;4.93;;;2.40;;
10939;SDS011;5522;42.696;23.494;2023-04-24T06:36:30;2.28;;;2.05;;
10939;SDS011;5522;42.696;23.494;2023-04-24T06:38:57;3.22;;;1.67;;
10939;SDS011;5522;42.696;23.494;2023-04-24T06:41:24;7.18;;;1.92;;
10939;SDS011;5522;42.696;23.494;2023-04-24T06:43:51;1.55;;;1.45;;
10939;SDS011;5522;42.696;23.494;2023-04-24T06:46:18;4.20;;;2.25;;
10939;SDS011;5522;42.696;23.494;2023-04-24T06:48:48;2.92;;;1.38;;
10939;SDS011;5522;42.696;23.494;2023-04-24T06:51:15;2.47;;;1.42;;
10939;SDS011;5522;42.696;23.494;2023-04-24T06:53:43;6.10;;;1.30;;
10939;SDS011;5522;42.696;23.494;2023-04-24T06:56:10;4.80;;;1.13;;
10939;SDS011;5522;42.696;23.494;2023-04-24T06:58:36;1.67;;;1.30;;
10939;SDS011;5522;42.696;23.494;2023-04-24T07:01:03;2.97;;;1.27;;
10939;SDS011;5522;42.696;23.494;2023-04-24T07:03:30;4.15;;;1.10;;
10939;SDS011;5522;42.696;23.494;2023-04-24T07:05:58;2.35;;;1.30;;
10939;SDS011;5522;42.696;23.494;2023-04-24T07:08:25;1.80;;;1.13;;
10939;SDS011;5522;42.696;23.494;2023-04-24T07:10:53;1.67;;;1.10;;
10939;SDS011;5522;42.696;23.494;2023-04-24T07:13:21;4.03;;;0.90;;
10939;SDS011;5522;42.696;23.494;2023-04-24T07:15:47;3.00;;;1.05;;
10939;SDS011;5522;42.696;23.494;2023-04-24T07:18:15;2.90;;;1.08;;
10939;SDS011;5522;42.696;23.494;2023-04-24T07:20:43;2.03;;;0.98;;
10939;SDS011;5522;42.696;23.494;2023-04-24T07:23:11;3.80;;;0.90;;
10939;SDS011;5522;42.696;23.494;2023-04-24T07:25:38;2.25;;;0.98;;
10939;SDS011;5522;42.696;23.494;2023-04-24T07:28:05;1.08;;;0.73;;
10939;SDS011;5522;42.696;23.494;2023-04-24T07:30:32;4.13;;;0.70;;
10939;SDS011;5522;42.696;23.494;2023-04-24T07:32:59;1.90;;;0.90;;
10939;SDS011;5522;42.696;23.494;2023-04-24T07:35:26;1.48;;;0.60;;
10939;SDS011;5522;42.696;23.494;2023-04-24T07:37:53;3.30;;;0.77;;
10939;SDS011;5522;42.696;23.494;2023-04-24T07:40:22;3.25;;;0.60;;
10939;SDS011;5522;42.696;23.494;2023-04-24T07:42:49;1.23;;;0.98;;
10939;SDS011;5522;42.696;23.494;2023-04-24T07:45:16;2.33;;;0.75;;
10939;SDS011;5522;42.696;23.494;2023-04-24T07:47:43;0.98;;;0.50;;
10939;SDS011;5522;42.696;23.494;2023-04-24T07:50:10;1.35;;;0.60;;
10939;SDS011;5522;42.696;23.494;2023-04-24T07:52:37;2.42;;;0.63;;
10939;SDS011;5522;42.696;23.494;2023-04-24T07:55:05;1.60;;;0.63;;
10939;SDS011;5522;42.696;23.494;2023-04-24T07:57:33;1.33;;;0.60;;
10939;SDS011;5522;42.696;23.494;2023-04-24T08:00:00;3.45;;;0.80;;
10939;SDS011;5522;42.696;23.494;2023-04-24T08:02:27;3.15;;;0.60;;
10939;SDS011;5522;42.696;23.494;2023-04-24T08:04:54;0.77;;;0.50;;
10939;SDS011;5522;42.696;23.494;2023-04-24T08:07:21;0.50;;;0.50;;
10939;SDS011;5522;42.696;23.494;2023-04-24T08:09:49;1.05;;;0.60;;
10939;SDS011;5522;42.696;23.494;2023-04-24T08:12:16;2.30;;;0.68;;
10939;SDS011;5522;42.696;23.494;2023-04-24T08:14:44;0.50;;;0.50;;
10939;SDS011;5522;42.696;23.494;2023-04-24T08:17:11;1.75;;;0.50;;
10939;SDS011;5522;42.696;23.494;2023-04-24T08:19:39;3.60;;;0.50;;
10939;SDS011;5522;42.696;23.494;2023-04-24T08:22:08;4.45;;;0.52;;
10939;SDS011;5522;42.696;23.494;2023-04-24T08:24:35;2.22;;;0.70;;
10939;SDS011;5522;42.696;23.494;2023-04-24T08:27:01;3.17;;;0.50;;
10939;SDS011;5522;42.696;23.494;2023-04-24T08:29:28;2.30;;;0.60;;
10939;SDS011;5522;42.696;23.494;2023-04-24T08:31:56;3.95;;;0.50;;
10939;SDS011;5522;42.696;23.494;2023-04-24T08:34:23;5.82;;;0.57;;
10939;SDS011;5522;42.696;23.494;2023-04-24T08:36:50;2.13;;;0.50;;
10939;SDS011;5522;42.696;23.494;2023-04-24T08:39:17;0.77;;;0.40;;
10939;SDS011;5522;42.696;23.494;2023-04-24T08:41:44;1.80;;;0.85;;
10939;SDS011;5522;42.696;23.494;2023-04-24T08:44:12;4.20;;;0.55;;
10939;SDS011;5522;42.696;23.494;2023-04-24T08:46:40;2.63;;;0.57;;
10939;SDS011;5522;42.696;23.494;2023-04-24T08:49:10;2.10;;;0.60;;
10939;SDS011;5522;42.696;23.494;2023-04-24T08:51:38;4.22;;;0.50;;
10939;SDS011;5522;42.696;23.494;2023-04-24T08:54:05;2.78;;;0.47;;
10939;SDS011;5522;42.696;23.494;2023-04-24T08:56:34;4.25;;;0.60;;
10939;SDS011;5522;42.696;23.494;2023-04-24T08:59:04;1.95;;;0.40;;
10939;SDS011;5522;42.696;23.494;2023-04-24T09:01:32;2.35;;;0.50;;
10939;SDS011;5522;42.696;23.494;2023-04-24T09:04:00;1.67;;;0.50;;
10939;SDS011;5522;42.696;23.494;2023-04-24T09:06:30;1.88;;;0.50;;
10939;SDS011;5522;42.696;23.494;2023-04-24T09:08:58;1.85;;;0.50;;
10939;SDS011;5522;42.696;23.494;2023-04-24T09:11:27;2.33;;;0.60;;
10939;SDS011;5522;42.696;23.494;2023-04-24T09:13:54;0.98;;;0.40;;
10939;SDS011;5522;42.696;23.494;2023-04-24T09:16:22;5.80;;;0.50;;
10939;SDS011;5522;42.696;23.494;2023-04-24T09:18:51;0.50;;;0.50;;
10939;SDS011;5522;42.696;23.494;2023-04-24T09:21:20;1.52;;;0.60;;
10939;SDS011;5522;42.696;23.494;2023-04-24T09:23:49;0.80;;;0.60;;
10939;SDS011;5522;42.696;23.494;2023-04-24T09:26:25;2.78;;;0.50;;
10939;SDS011;5522;42.696;23.494;2023-04-24T09:28:53;0.40;;;0.40;;
10939;SDS011;5522;42.696;23.494;2023-04-24T09:31:19;1.13;;;0.50;;
10939;SDS011;5522;42.696;23.494;2023-04-24T09:33:53;0.57;;;0.50;;
10939;SDS011;5522;42.696;23.494;2023-04-24T09:36:26;1.88;;;0.65;;
10939;SDS011;5522;42.696;23.494;2023-04-24T09:38:55;0.57;;;0.57;;
10939;SDS011;5522;42.696;23.494;2023-04-24T09:41:24;1.20;;;0.60;;
10939;SDS011;5522;42.696;23.494;2023-04-24T09:43:53;2.05;;;0.50;;
10939;SDS011;5522;42.696;23.494;2023-04-24T09:46:21;4.43;;;0.50;;
10939;SDS011;5522;42.696;23.494;2023-04-24T09:48:55;0.63;;;0.55;;
10939;SDS011;5522;42.696;23.494;2023-04-24T09:51:32;1.60;;;0.45;;
10939;SDS011;5522;42.696;23.494;2023-04-24T09:54:03;4.07;;;0.50;;
10939;SDS011;5522;42.696;23.494;2023-04-24T09:56:34;0.43;;;0.40;;
10939;SDS011;5522;42.696;23.494;2023-04-24T09:59:04;0.65;;;0.50;;
10939;SDS011;5522;42.696;23.494;2023-04-24T10:01:32;0.95;;;0.50;;
10939;SDS011;5522;42.696;23.494;2023-04-24T10:03:59;5.97;;;0.60;;
10939;SDS011;5522;42.696;23.494;2023-04-24T10:06:31;2.92;;;0.57;;
10939;SDS011;5522;42.696;23.494;2023-04-24T10:08:59;0.57;;;0.57;;
10939;SDS011;5522;42.696;23.494;2023-04-24T10:11:28;5.15;;;0.50;;
10939;SDS011;5522;42.696;23.494;2023-04-24T10:13:56;4.57;;;0.70;;
10939;SDS011;5522;42.696;23.494;2023-04-24T10:16:23;2.50;;;0.50;;
10939;SDS011;5522;42.696;23.494;2023-04-24T10:18:52;0.70;;;0.50;;
10939;SDS011;5522;42.696;23.494;2023-04-24T10:21:19;0.95;;;0.50;;
10939;SDS011;5522;42.696;23.494;2023-04-24T10:23:46;1.17;;;0.43;;
10939;SDS011;5522;42.696;23.494;2023-04-24T10:26:15;1.40;;;0.55;;
10939;SDS011;5522;42.696;23.494;2023-04-24T10:28:46;3.38;;;0.70;;
10939;SDS011;5522;42.696;23.494;2023-04-24T10:31:14;1.30;;;0.60;;
10939;SDS011;5522;42.696;23.494;2023-04-24T10:33:41;1.55;;;0.57;;
10939;SDS011;5522;42.696;23.494;2023-04-24T10:36:10;2.05;;;0.50;;
10939;SDS011;5522;42.696;23.494;2023-04-24T10:38:39;1.48;;;0.60;;
10939;SDS011;5522;42.696;23.494;2023-04-24T10:41:08;0.57;;;0.50;;
10939;SDS011;5522;42.696;23.494;2023-04-24T10:43:41;0.52;;;0.47;;
10939;SDS011;5522;42.696;23.494;2023-04-24T10:46:10;1.83;;;0.50;;
10939;SDS011;5522;42.696;23.494;2023-04-24T10:48:41;1.48;;;0.68;;
10939;SDS011;5522;42.696;23.494;2023-04-24T10:51:11;0.60;;;0.60;;
10939;SDS011;5522;42.696;23.494;2023-04-24T10:53:39;3.13;;;0.80;;
10939;SDS011;5522;42.696;23.494;2023-04-24T10:56:06;0.77;;;0.50;;
10939;SDS011;5522;42.696;23.494;2023-04-24T10:58:38;2.20;;;0.50;;
10939;SDS011;5522;42.696;23.494;2023-04-24T11:01:11;0.68;;;0.52;;
10939;SDS011;5522;42.696;23.494;2023-04-24T11:03:50;2.15;;;0.60;;
10939;SDS011;5522;42.696;23.494;2023-04-24T11:06:28;1.50;;;0.50;;
10939;SDS011;5522;42.696;23.494;2023-04-24T11:08:59;1.67;;;0.50;;
10939;SDS011;5522;42.696;23.494;2023-04-24T11:11:30;0.70;;;0.60;;
10939;SDS011;5522;42.696;23.494;2023-04-24T11:14:01;2.30;;;0.50;;
10939;SDS011;5522;42.696;23.494;2023-04-24T11:16:34;1.25;;;0.60;;
10939;SDS011;5522;42.696;23.494;2023-04-24T11:19:04;2.42;;;0.60;;
10939;SDS011;5522;42.696;23.494;2023-04-24T11:21:38;0.85;;;0.60;;
10939;SDS011;5522;42.696;23.494;2023-04-24T11:24:22;4.03;;;0.60;;
10939;SDS011;5522;42.696;23.494;2023-04-24T11:26:51;1.55;;;0.55;;
10939;SDS011;5522;42.696;23.494;2023-04-24T11:29:19;4.00;;;0.90;;
10939;SDS011;5522;42.696;23.494;2023-04-24T11:31:48;2.97;;;0.70;;
10939;SDS011;5522;42.696;23.494;2023-04-24T11:34:16;0.63;;;0.50;;
10939;SDS011;5522;42.696;23.494;2023-04-24T11:36:44;4.57;;;0.60;;
10939;SDS011;5522;42.696;23.494;2023-04-24T11:39:12;1.33;;;0.80;;
10939;SDS011;5522;42.696;23.494;2023-04-24T11:41:40;1.85;;;0.70;;
10939;SDS011;5522;42.696;23.494;2023-04-24T11:44:08;0.88;;;0.60;;
10939;SDS011;5522;42.696;23.494;2023-04-24T11:46:36;3.15;;;0.80;;
10939;SDS011;5522;42.696;23.494;2023-04-24T11:49:06;2.45;;;0.65;;
10939;SDS011;5522;42.696;23.494;2023-04-24T11:51:33;6.32;;;1.10;;
10939;SDS011;5522;42.696;23.494;2023-04-24T11:54:00;1.80;;;0.93;;
10939;SDS011;5522;42.696;23.494;2023-04-24T11:56:28;11.85;;;1.63;;
10939;SDS011;5522;42.696;23.494;2023-04-24T11:58:55;1.98;;;0.90;;
10939;SDS011;5522;42.696;23.494;2023-04-24T12:01:21;5.13;;;1.55;;
10939;SDS011;5522;42.696;23.494;2023-04-24T12:03:48;1.60;;;1.50;;
10939;SDS011;5522;42.696;23.494;2023-04-24T12:06:17;4.38;;;1.27;;
10939;SDS011;5522;42.696;23.494;2023-04-24T12:08:48;3.50;;;0.80;;
10939;SDS011;5522;42.696;23.494;2023-04-24T12:11:15;2.10;;;1.23;;
10939;SDS011;5522;42.696;23.494;2023-04-24T12:13:45;1.48;;;1.00;;
10939;SDS011;5522;42.696;23.494;2023-04-24T12:16:12;1.45;;;0.75;;
10939;SDS011;5522;42.696;23.494;2023-04-24T12:18:42;0.82;;;0.80;;
10939;SDS011;5522;42.696;23.494;2023-04-24T12:21:19;0.88;;;0.88;;
10939;SDS011;5522;42.696;23.494;2023-04-24T12:23:47;1.77;;;0.60;;
10939;SDS011;5522;42.696;23.494;2023-04-24T12:26:16;1.52;;;0.50;;
10939;SDS011;5522;42.696;23.494;2023-04-24T12:28:45;0.70;;;0.50;;
10939;SDS011;5522;42.696;23.494;2023-04-24T12:31:13;1.05;;;0.60;;
10939;SDS011;5522;42.696;23.494;2023-04-24T12:33:40;3.22;;;0.60;;
10939;SDS011;5522;42.696;23.494;2023-04-24T12:36:09;0.50;;;0.50;;
10939;SDS011;5522;42.696;23.494;2023-04-24T12:38:38;2.70;;;0.40;;
10939;SDS011;5522;42.696;23.494;2023-04-24T12:41:10;0.70;;;0.50;;
10939;SDS011;5522;42.696;23.494;2023-04-24T12:43:38;1.20;;;0.60;;
10939;SDS011;5522;42.696;23.494;2023-04-24T12:46:16;0.60;;;0.60;;
10939;SDS011;5522;42.696;23.494;2023-04-24T12:48:43;5.10;;;0.50;;
10939;SDS011;5522;42.696;23.494;2023-04-24T12:51:10;2.17;;;0.45;;
10939;SDS011;5522;42.696;23.494;2023-04-24T12:53:36;1.15;;;0.60;;
10939;SDS011;5522;42.696;23.494;2023-04-24T12:56:05;3.25;;;0.80;;
10939;SDS011;5522;42.696;23.494;2023-04-24T12:58:32;0.50;;;0.50;;
10939;SDS011;5522;42.696;23.494;2023-04-24T13:00:58;2.58;;;0.50;;
10939;SDS011;5522;42.696;23.494;2023-04-24T13:03:26;3.30;;;0.60;;
10939;SDS011;5522;42.696;23.494;2023-04-24T13:05:52;1.27;;;0.50;;
10939;SDS011;5522;42.696;23.494;2023-04-24T13:08:19;5.15;;;0.50;;
10939;SDS011;5522;42.696;23.494;2023-04-24T13:10:47;0.38;;;0.30;;
10939;SDS011;5522;42.696;23.494;2023-04-24T13:13:16;2.58;;;0.40;;
10939;SDS011;5522;42.696;23.494;2023-04-24T13:15:42;0.40;;;0.40;;
10939;SDS011;5522;42.696;23.494;2023-04-24T13:18:09;0.57;;;0.30;;
10939;SDS011;5522;42.696;23.494;2023-04-24T13:20:36;0.30;;;0.30;;
10939;SDS011;5522;42.696;23.494;2023-04-24T13:23:03;1.85;;;0.40;;
10939;SDS011;5522;42.696;23.494;2023-04-24T13:25:34;0.40;;;0.40;;
10939;SDS011;5522;42.696;23.494;2023-04-24T13:28:03;0.52;;;0.40;;
10939;SDS011;5522;42.696;23.494;2023-04-24T13:30:30;0.60;;;0.60;;
10939;SDS011;5522;42.696;23.494;2023-04-24T13:32:57;0.73;;;0.40;;
10939;SDS011;5522;42.696;23.494;2023-04-24T13:35:24;0.55;;;0.40;;
10939;SDS011;5522;42.696;23.494;2023-04-24T13:37:51;1.73;;;0.40;;
10939;SDS011;5522;42.696;23.494;2023-04-24T13:40:18;0.32;;;0.32;;
10939;SDS011;5522;42.696;23.494;2023-04-24T13:42:45;0.30;;;0.30;;
10939;SDS011;5522;42.696;23.494;2023-04-24T13:45:13;1.60;;;0.40;;
10939;SDS011;5522;42.696;23.494;2023-04-24T13:47:40;1.30;;;0.47;;
10939;SDS011;5522;42.696;23.494;2023-04-24T13:50:07;0.50;;;0.50;;
10939;SDS011;5522;42.696;23.494;2023-04-24T13:52:35;0.40;;;0.40;;
10939;SDS011;5522;42.696;23.494;2023-04-24T13:55:02;1.42;;;0.43;;
10939;SDS011;5522;42.696;23.494;2023-04-24T13:57:29;0.50;;;0.50;;
10939;SDS011;5522;42.696;23.494;2023-04-24T13:59:57;2.33;;;0.50;;
10939;SDS011;5522;42.696;23.494;2023-04-24T14:02:27;0.80;;;0.47;;
10939;SDS011;5522;42.696;23.494;2023-04-24T14:04:54;2.17;;;0.50;;
10939;SDS011;5522;42.696;23.494;2023-04-24T14:07:21;0.43;;;0.43;;
10939;SDS011;5522;42.696;23.494;2023-04-24T14:09:48;0.40;;;0.40;;
10939;SDS011;5522;42.696;23.494;2023-04-24T14:12:14;3.38;;;0.50;;
10939;SDS011;5522;42.696;23.494;2023-04-24T14:14:44;0.50;;;0.50;;
10939;SDS011;5522;42.696;23.494;2023-04-24T14:17:13;1.17;;;0.40;;
10939;SDS011;5522;42.696;23.494;2023-04-24T14:19:41;0.40;;;0.40;;
10939;SDS011;5522;42.696;23.494;2023-04-24T14:22:08;2.55;;;0.50;;
10939;SDS011;5522;42.696;23.494;2023-04-24T14:24:34;1.77;;;0.50;;
10939;SDS011;5522;42.696;23.494;2023-04-24T14:27:01;0.52;;;0.52;;
10939;SDS011;5522;42.696;23.494;2023-04-24T14:29:28;0.60;;;0.60;;
10939;SDS011;5522;42.696;23.494;2023-04-24T14:31:55;2.67;;;0.50;;
10939;SDS011;5522;42.696;23.494;2023-04-24T14:34:22;0.60;;;0.50;;
10939;SDS011;5522;42.696;23.494;2023-04-24T14:36:52;1.10;;;0.40;;
10939;SDS011;5522;42.696;23.494;2023-04-24T14:39:19;2.05;;;0.47;;
10939;SDS011;5522;42.696;23.494;2023-04-24T14:41:46;2.95;;;0.50;;
10939;SDS011;5522;42.696;23.494;2023-04-24T14:44:13;1.52;;;0.40;;
10939;SDS011;5522;42.696;23.494;2023-04-24T14:46:40;0.40;;;0.40;;
10939;SDS011;5522;42.696;23.494;2023-04-24T14:49:07;0.57;;;0.50;;
10939;SDS011;5522;42.696;23.494;2023-04-24T14:51:34;0.82;;;0.45;;
10939;SDS011;5522;42.696;23.494;2023-04-24T14:54:03;3.72;;;0.40;;
10939;SDS011;5522;42.696;23.494;2023-04-24T14:56:30;0.40;;;0.40;;
10939;SDS011;5522;42.696;23.494;2023-04-24T14:58:57;0.40;;;0.40;;